KFKS

Frankfort Dow Memorial Field Airport

Frankfort, Michigan, USA
METAR KFKS 221735Z AUTO 35006KT 10SM CLR 16/10 A3005 RMK AO2 T01570103
Observed Flight Rules
May-22 @ 17:35 UTC (10 minutes ago) Visual Flight Rules
Wind Visibility Clouds
350° at 6 knots 10 miles
  • Clear skies
Temperatures Readings
Current 16°C / 61°F
Dewpoint 10°C / 50°F
Humidity 68%
Altimeter 30.05" Hg
Pressure 1018 hPa
Elevation 193
METAR KFKS 221735Z AUTO 35006KT 10SM CLR 16/10 A3005 RMK AO2 T01570103
Observed Flight Rules
May-22 @ 17:35 UTC
(10 minutes ago)
VFR
Wind Visibility
350° at 6 knots 10 miles
Clouds
  • Clear skies
Temperature Dewpoint
16°C / 61°F 10°C / 50°F
Humidity Altimeter Pressure
68% 30.05" Hg 1018 hPa